Time;durP1;ratioP1;P1;durP2;ratioP2;P2;SDS_P1;SDS_P2;PMS_P1;PMS_P2;Temp;Humidity;BMP_temperature;BMP_pressure;BME280_temperature;BME280_humidity;BME280_pressure;Samples;Min_cycle;Max_cycle;Signal;HPM_P1;HPM_P2
2021/06/11 00:01:05;;;;;;;10.03;7.40;;;15.30;99.90;;;;;;484124;245;28829;-66
2021/06/11 00:03:07;;;;;;;6.63;6.03;;;15.30;99.90;;;;;;484142;245;28862;-66
2021/06/11 00:05:08;;;;;;;7.07;6.53;;;15.20;99.90;;;;;;484120;245;28782;-65
2021/06/11 00:07:09;;;;;;;7.20;6.60;;;15.20;99.90;;;;;;484164;245;28805;-68
2021/06/11 00:09:14;;;;;;;6.73;6.10;;;15.20;99.90;;;;;;484161;245;30356;-65
2021/06/11 00:11:12;;;;;;;7.17;6.50;;;15.20;99.90;;;;;;483911;245;29385;-66
2021/06/11 00:13:13;;;;;;;7.73;6.87;;;15.20;99.90;;;;;;484140;245;29224;-66
2021/06/11 00:15:14;;;;;;;7.20;6.70;;;15.20;99.90;;;;;;484087;245;29355;-66
2021/06/11 00:17:15;;;;;;;6.80;6.20;;;15.20;99.90;;;;;;484162;245;28784;-67
2021/06/11 00:19:17;;;;;;;7.80;7.10;;;15.20;99.90;;;;;;484173;245;28750;-65
2021/06/11 00:21:18;;;;;;;8.07;7.20;;;15.10;99.90;;;;;;484148;245;28786;-67
2021/06/11 00:23:19;;;;;;;6.40;5.90;;;15.10;99.90;;;;;;484128;245;28907;-66
2021/06/11 00:25:22;;;;;;;7.10;6.50;;;15.00;99.90;;;;;;484127;245;28800;-66
2021/06/11 00:27:22;;;;;;;6.90;6.30;;;15.00;99.90;;;;;;484061;245;28785;-67
2021/06/11 00:29:23;;;;;;;6.80;6.20;;;15.00;99.90;;;;;;484141;245;28853;-66
2021/06/11 00:31:24;;;;;;;6.57;6.07;;;15.00;99.90;;;;;;484126;245;28896;-66
2021/06/11 00:33:25;;;;;;;7.40;6.80;;;14.90;99.90;;;;;;484129;245;29293;-66
2021/06/11 00:35:27;;;;;;;7.03;6.43;;;14.90;99.90;;;;;;484059;245;29348;-66
2021/06/11 00:37:28;;;;;;;7.70;6.93;;;14.90;99.90;;;;;;484201;245;29284;-68
2021/06/11 00:39:29;;;;;;;7.63;6.93;;;14.90;99.90;;;;;;484160;245;29340;-65
2021/06/11 00:41:30;;;;;;;6.90;6.23;;;14.70;99.90;;;;;;484132;245;28782;-66
2021/06/11 00:43:32;;;;;;;8.60;6.60;;;14.80;99.90;;;;;;484110;245;28839;-65
2021/06/11 00:45:33;;;;;;;7.23;6.63;;;14.70;99.90;;;;;;484108;245;28870;-66
2021/06/11 00:47:34;;;;;;;6.73;6.10;;;14.70;99.90;;;;;;484164;245;28891;-67
2021/06/11 00:49:35;;;;;;;6.30;5.70;;;14.70;99.90;;;;;;484120;245;28757;-66
2021/06/11 00:51:37;;;;;;;8.70;6.73;;;14.70;99.90;;;;;;484108;245;28557;-65
2021/06/11 00:53:38;;;;;;;7.93;5.83;;;14.80;99.90;;;;;;484141;245;28886;-66
2021/06/11 00:55:45;;;;;;;6.70;6.17;;;14.70;99.90;;;;;;484171;245;28800;-65
2021/06/11 00:57:46;;;;;;;6.67;6.07;;;14.70;99.90;;;;;;484138;245;28807;-67
2021/06/11 00:59:48;;;;;;;7.10;6.50;;;14.70;99.90;;;;;;484105;245;29380;-65
2021/06/11 01:01:49;;;;;;;7.30;6.33;;;14.70;99.90;;;;;;484140;245;29265;-65
2021/06/11 01:03:50;;;;;;;7.27;6.53;;;14.80;99.90;;;;;;484121;245;29346;-65
2021/06/11 01:05:51;;;;;;;6.30;5.70;;;14.70;99.90;;;;;;484150;245;28749;-66
2021/06/11 01:07:53;;;;;;;6.80;6.30;;;14.60;99.90;;;;;;484143;245;28852;-67
2021/06/11 01:09:54;;;;;;;7.23;6.43;;;14.50;99.90;;;;;;484141;245;28803;-66
2021/06/11 01:11:55;;;;;;;6.33;5.80;;;14.50;99.90;;;;;;484073;245;28903;-66
2021/06/11 01:13:56;;;;;;;6.23;5.73;;;14.50;99.90;;;;;;484082;245;28857;-65
2021/06/11 01:15:58;;;;;;;6.00;5.50;;;14.60;99.90;;;;;;484146;245;28429;-66
2021/06/11 01:17:59;;;;;;;6.90;6.27;;;14.60;99.90;;;;;;484127;245;28792;-66
2021/06/11 01:20:00;;;;;;;7.07;6.47;;;14.60;99.90;;;;;;484143;245;28497;-65
2021/06/11 01:22:01;;;;;;;6.00;5.47;;;14.60;99.90;;;;;;484098;245;28576;-66
2021/06/11 01:24:05;;;;;;;7.77;6.10;;;14.50;99.90;;;;;;484120;245;30190;-65
2021/06/11 01:26:04;;;;;;;7.43;6.60;;;14.50;99.90;;;;;;483952;245;29220;-66
2021/06/11 01:28:06;;;;;;;8.50;6.77;;;14.50;99.90;;;;;;484151;245;29374;-66
2021/06/11 01:30:06;;;;;;;7.07;6.47;;;14.50;99.90;;;;;;484111;245;28762;-66
2021/06/11 01:32:08;;;;;;;7.70;6.33;;;14.50;99.90;;;;;;484105;245;29001;-65
2021/06/11 01:34:09;;;;;;;8.47;6.67;;;14.40;99.90;;;;;;484132;245;28824;-65
2021/06/11 01:36:10;;;;;;;7.10;6.50;;;14.40;99.90;;;;;;484169;245;28793;-66
2021/06/11 01:38:11;;;;;;;6.77;6.13;;;14.30;99.90;;;;;;484150;245;28828;-67
2021/06/11 01:40:13;;;;;;;6.10;5.67;;;14.30;99.90;;;;;;484157;245;28303;-66
2021/06/11 01:42:14;;;;;;;6.53;5.87;;;14.20;99.90;;;;;;484120;245;28905;-65
2021/06/11 01:44:15;;;;;;;6.27;5.73;;;14.20;99.90;;;;;;484108;243;28337;-66
2021/06/11 01:46:17;;;;;;;5.77;5.33;;;14.20;99.90;;;;;;484182;245;28360;-66
2021/06/11 01:48:18;;;;;;;6.70;6.20;;;14.10;99.90;;;;;;484193;245;28985;-66
2021/06/11 01:50:19;;;;;;;7.20;6.60;;;14.10;99.90;;;;;;484181;245;29019;-65
2021/06/11 01:52:20;;;;;;;7.87;6.30;;;14.10;99.90;;;;;;484152;245;29280;-66
2021/06/11 01:54:21;;;;;;;7.27;6.20;;;14.10;99.90;;;;;;484174;245;29969;-66
2021/06/11 01:56:23;;;;;;;6.43;5.93;;;14.10;99.90;;;;;;484173;245;28516;-66
2021/06/11 01:58:24;;;;;;;7.93;6.27;;;14.10;99.90;;;;;;484175;245;28338;-65
2021/06/11 02:00:25;;;;;;;6.97;6.37;;;14.10;99.90;;;;;;484142;245;28561;-66
2021/06/11 02:02:26;;;;;;;6.97;6.37;;;14.00;99.90;;;;;;484161;245;28843;-66
2021/06/11 02:04:28;;;;;;;7.07;6.37;;;14.00;99.90;;;;;;484175;245;28613;-65
2021/06/11 02:06:29;;;;;;;6.60;6.10;;;14.10;99.90;;;;;;484143;245;28760;-65
2021/06/11 02:08:30;;;;;;;7.73;6.07;;;14.00;99.90;;;;;;484139;245;28466;-66
2021/06/11 02:10:31;;;;;;;7.33;6.63;;;14.00;99.90;;;;;;484149;245;28348;-66
2021/06/11 02:12:33;;;;;;;7.93;7.13;;;14.00;99.90;;;;;;484094;245;28972;-66
2021/06/11 02:14:34;;;;;;;5.90;5.50;;;14.00;99.90;;;;;;484165;245;29032;-67
2021/06/11 02:16:35;;;;;;;6.77;6.17;;;14.00;99.90;;;;;;484184;245;28751;-66
2021/06/11 02:18:36;;;;;;;6.47;5.93;;;14.00;99.90;;;;;;484179;245;28835;-66
2021/06/11 02:20:38;;;;;;;6.53;6.00;;;14.00;99.90;;;;;;484142;245;28235;-65
2021/06/11 02:22:39;;;;;;;7.73;6.93;;;14.00;99.90;;;;;;484095;245;28405;-66
2021/06/11 02:24:40;;;;;;;6.30;5.80;;;13.90;99.90;;;;;;484173;245;28532;-67
2021/06/11 02:26:42;;;;;;;6.93;6.33;;;13.90;99.90;;;;;;484168;245;28120;-66
2021/06/11 02:28:43;;;;;;;7.60;6.90;;;13.90;99.90;;;;;;484054;245;28548;-65
2021/06/11 02:30:44;;;;;;;7.07;6.50;;;13.90;99.90;;;;;;484147;245;29396;-66
2021/06/11 02:32:45;;;;;;;7.27;6.20;;;13.90;99.90;;;;;;484100;245;29490;-65
2021/06/11 02:34:46;;;;;;;6.33;5.73;;;13.80;99.90;;;;;;484219;245;28989;-67
2021/06/11 02:36:48;;;;;;;6.30;5.77;;;13.80;99.90;;;;;;484174;245;28463;-65
2021/06/11 02:38:49;;;;;;;6.83;6.33;;;13.70;99.90;;;;;;484138;245;28447;-66
2021/06/11 02:40:50;;;;;;;9.77;6.47;;;13.70;99.90;;;;;;484133;245;28397;-65
2021/06/11 02:42:51;;;;;;;6.37;5.87;;;13.70;99.90;;;;;;484127;245;28870;-66
2021/06/11 02:44:54;;;;;;;6.87;6.10;;;13.70;99.90;;;;;;484155;245;28476;-67
2021/06/11 02:46:55;;;;;;;6.90;6.20;;;13.70;99.90;;;;;;484158;245;28373;-66
2021/06/11 02:48:56;;;;;;;6.50;6.00;;;13.70;99.90;;;;;;484137;245;28463;-67
2021/06/11 02:50:58;;;;;;;7.17;5.77;;;13.70;99.90;;;;;;484148;245;29443;-65
2021/06/11 02:52:59;;;;;;;6.53;5.80;;;13.70;99.90;;;;;;484133;245;29668;-65
2021/06/11 02:55:00;;;;;;;6.73;6.13;;;13.70;99.90;;;;;;484153;245;28994;-65
2021/06/11 02:57:01;;;;;;;8.50;5.80;;;13.70;99.90;;;;;;484128;245;28797;-67
2021/06/11 02:59:03;;;;;;;6.87;6.37;;;13.70;99.90;;;;;;484142;245;28340;-66
2021/06/11 03:01:04;;;;;;;6.93;6.33;;;13.70;99.90;;;;;;484153;245;28485;-65
2021/06/11 03:03:05;;;;;;;8.50;6.40;;;13.70;99.90;;;;;;484081;245;28153;-66
2021/06/11 03:05:06;;;;;;;6.57;6.07;;;13.70;99.90;;;;;;484134;245;28348;-65
2021/06/11 03:07:08;;;;;;;7.87;6.90;;;13.80;99.90;;;;;;484134;245;28452;-65
2021/06/11 03:09:10;;;;;;;6.47;5.87;;;13.80;99.90;;;;;;484163;245;28531;-65
2021/06/11 03:11:10;;;;;;;7.10;6.50;;;13.80;99.90;;;;;;484057;245;28532;-65
2021/06/11 03:13:11;;;;;;;6.70;5.97;;;13.90;99.90;;;;;;484132;245;28495;-68
2021/06/11 03:15:13;;;;;;;7.10;6.40;;;13.90;99.90;;;;;;484126;245;28913;-66
2021/06/11 03:17:14;;;;;;;6.80;6.30;;;13.90;99.90;;;;;;484124;245;28962;-66
2021/06/11 03:19:15;;;;;;;8.60;6.30;;;14.00;99.90;;;;;;484132;245;29205;-65
2021/06/11 03:21:16;;;;;;;7.33;6.63;;;14.00;99.90;;;;;;484146;245;29379;-66
2021/06/11 03:23:18;;;;;;;6.77;6.17;;;14.00;99.90;;;;;;484133;245;28817;-68
2021/06/11 03:25:19;;;;;;;6.80;6.20;;;14.10;99.90;;;;;;484198;245;28558;-65
2021/06/11 03:27:20;;;;;;;6.90;6.40;;;14.00;99.90;;;;;;484146;244;28872;-66
2021/06/11 03:29:21;;;;;;;6.20;5.70;;;14.00;99.90;;;;;;484157;245;28773;-65
2021/06/11 03:31:23;;;;;;;7.07;6.53;;;14.00;99.90;;;;;;484192;245;28483;-66
2021/06/11 03:33:24;;;;;;;6.93;6.33;;;14.00;99.90;;;;;;484188;245;28671;-65
2021/06/11 03:35:25;;;;;;;6.80;6.20;;;14.00;99.90;;;;;;484177;245;28424;-65
2021/06/11 03:37:26;;;;;;;7.63;6.90;;;14.10;99.90;;;;;;484139;245;28377;-65
2021/06/11 03:39:28;;;;;;;7.37;6.60;;;14.00;99.90;;;;;;484172;245;28518;-65
2021/06/11 03:41:29;;;;;;;6.93;6.33;;;14.00;99.90;;;;;;484157;245;28973;-66
2021/06/11 03:43:30;;;;;;;6.20;5.70;;;14.10;99.90;;;;;;484180;245;29343;-66
2021/06/11 03:45:31;;;;;;;6.43;5.90;;;14.00;99.90;;;;;;484162;245;28680;-65
2021/06/11 03:47:33;;;;;;;7.37;6.77;;;14.00;99.90;;;;;;484161;245;28785;-66
2021/06/11 03:49:34;;;;;;;5.90;5.40;;;14.00;99.90;;;;;;484167;245;28536;-66
2021/06/11 03:51:35;;;;;;;6.80;6.30;;;14.00;99.90;;;;;;484136;245;28435;-65
2021/06/11 03:53:36;;;;;;;6.83;6.30;;;14.10;99.90;;;;;;484145;245;28801;-64
2021/06/11 03:55:38;;;;;;;6.83;6.33;;;14.10;99.90;;;;;;484155;245;28852;-67
2021/06/11 03:57:39;;;;;;;6.30;5.80;;;14.20;99.90;;;;;;484118;245;28420;-66
2021/06/11 03:59:40;;;;;;;6.47;5.87;;;14.20;99.90;;;;;;484148;245;28605;-66
2021/06/11 04:01:41;;;;;;;6.17;5.67;;;14.20;99.90;;;;;;484164;245;28754;-65
2021/06/11 04:03:43;;;;;;;6.03;5.53;;;14.20;99.90;;;;;;484163;245;28221;-66
2021/06/11 04:05:44;;;;;;;6.53;5.93;;;14.20;99.90;;;;;;484153;245;29239;-65
2021/06/11 04:07:45;;;;;;;7.00;6.30;;;14.20;99.90;;;;;;484098;245;29291;-65
2021/06/11 04:09:46;;;;;;;7.90;6.77;;;14.20;99.90;;;;;;484142;245;29117;-67
2021/06/11 04:11:48;;;;;;;7.37;6.67;;;14.20;99.90;;;;;;484160;245;28757;-65
2021/06/11 04:13:49;;;;;;;7.23;6.33;;;14.20;99.90;;;;;;484143;245;28584;-66
2021/06/11 04:15:50;;;;;;;7.07;6.47;;;14.20;99.90;;;;;;484130;245;28799;-65
2021/06/11 04:17:51;;;;;;;10.63;6.73;;;14.30;99.90;;;;;;484105;245;28659;-65
2021/06/11 04:19:56;;;;;;;6.80;6.20;;;14.30;99.90;;;;;;484152;245;28828;-67
2021/06/11 04:21:54;;;;;;;7.07;6.37;;;14.40;99.90;;;;;;483577;245;28843;-65
2021/06/11 04:23:55;;;;;;;7.60;6.90;;;14.40;99.90;;;;;;484077;245;28801;-66
2021/06/11 04:25:56;;;;;;;7.00;6.40;;;14.40;99.90;;;;;;484050;245;28847;-65
2021/06/11 04:27:58;;;;;;;6.30;5.80;;;14.40;99.90;;;;;;484056;245;29060;-65
2021/06/11 04:29:59;;;;;;;9.40;6.33;;;14.40;99.90;;;;;;484109;245;29367;-66
2021/06/11 04:32:00;;;;;;;6.30;5.80;;;14.60;99.90;;;;;;484117;245;29259;-65
2021/06/11 04:34:01;;;;;;;7.20;6.50;;;14.60;99.90;;;;;;484069;245;29357;-66
2021/06/11 04:36:03;;;;;;;7.03;6.43;;;14.60;99.90;;;;;;484106;245;28836;-65
2021/06/11 04:38:04;;;;;;;8.23;6.43;;;14.60;99.90;;;;;;484073;245;28877;-65
2021/06/11 04:40:05;;;;;;;7.30;6.70;;;14.70;99.90;;;;;;484124;245;28868;-66
2021/06/11 04:42:06;;;;;;;7.13;6.50;;;14.60;99.90;;;;;;484035;245;28758;-65
2021/06/11 04:44:08;;;;;;;6.80;6.20;;;14.60;99.90;;;;;;484174;245;28801;-65
2021/06/11 04:46:09;;;;;;;7.07;6.47;;;14.60;99.90;;;;;;484107;245;28425;-65
2021/06/11 04:48:10;;;;;;;7.87;6.53;;;14.60;99.90;;;;;;484167;245;28867;-65
2021/06/11 04:50:11;;;;;;;7.03;6.43;;;14.60;99.90;;;;;;484143;245;28817;-66
2021/06/11 04:52:13;;;;;;;9.43;7.00;;;14.70;99.90;;;;;;484150;245;28828;-65
2021/06/11 04:54:14;;;;;;;7.17;5.97;;;14.80;99.90;;;;;;484127;245;29274;-65
2021/06/11 04:56:15;;;;;;;7.00;6.40;;;14.80;99.90;;;;;;484095;245;30097;-65
2021/06/11 04:58:18;;;;;;;6.83;6.23;;;14.90;99.90;;;;;;484163;245;29326;-66
2021/06/11 05:00:18;;;;;;;7.67;6.90;;;14.90;99.90;;;;;;484076;245;28781;-65
2021/06/11 05:02:19;;;;;;;6.90;6.20;;;15.00;99.90;;;;;;484130;245;28763;-65
2021/06/11 05:04:22;;;;;;;6.37;5.87;;;15.00;99.90;;;;;;484008;245;28984;-64
2021/06/11 05:06:21;;;;;;;8.43;6.43;;;15.00;99.90;;;;;;483982;245;28883;-64
2021/06/11 05:08:23;;;;;;;7.60;6.90;;;15.10;99.90;;;;;;484125;245;28877;-65
2021/06/11 05:10:24;;;;;;;6.70;6.20;;;15.10;99.90;;;;;;484159;245;28814;-66
2021/06/11 05:12:25;;;;;;;6.33;5.83;;;15.20;99.90;;;;;;484162;245;28760;-65
2021/06/11 05:14:26;;;;;;;6.60;6.00;;;15.30;99.90;;;;;;484130;245;28976;-65
2021/06/11 05:16:28;;;;;;;6.77;6.03;;;15.30;99.90;;;;;;484188;245;28820;-67
2021/06/11 05:18:29;;;;;;;6.90;6.20;;;15.40;99.90;;;;;;484164;245;29342;-65
2021/06/11 05:20:30;;;;;;;12.50;6.67;;;15.50;99.90;;;;;;484177;245;29276;-66
2021/06/11 05:22:31;;;;;;;6.70;6.00;;;15.50;99.90;;;;;;484153;245;29342;-65
2021/06/11 05:24:33;;;;;;;7.40;6.70;;;15.60;99.90;;;;;;484140;245;28772;-65
2021/06/11 05:26:34;;;;;;;7.63;6.80;;;15.70;99.90;;;;;;484187;245;28798;-67
2021/06/11 05:28:35;;;;;;;6.30;5.73;;;15.70;99.90;;;;;;484183;245;28842;-65
2021/06/11 05:30:36;;;;;;;6.83;6.23;;;15.80;99.90;;;;;;484192;245;28813;-65
2021/06/11 05:32:38;;;;;;;7.63;6.37;;;15.90;99.90;;;;;;484131;245;28820;-65
2021/06/11 05:34:39;;;;;;;7.23;6.30;;;15.90;99.90;;;;;;484119;245;28795;-66
2021/06/11 05:36:40;;;;;;;6.63;5.60;;;16.00;99.90;;;;;;484162;245;28804;-67
2021/06/11 05:38:42;;;;;;;6.97;6.37;;;16.10;99.90;;;;;;484162;245;28759;-65
2021/06/11 05:40:43;;;;;;;6.80;6.20;;;16.00;99.90;;;;;;484069;245;28773;-66
2021/06/11 05:42:44;;;;;;;6.50;6.00;;;16.00;99.90;;;;;;484152;245;29179;-65
2021/06/11 05:44:45;;;;;;;6.67;6.17;;;16.10;99.90;;;;;;484137;245;29441;-66
2021/06/11 05:46:46;;;;;;;8.20;7.40;;;16.20;99.90;;;;;;484209;245;29346;-67
2021/06/11 05:48:48;;;;;;;6.37;5.87;;;16.20;99.90;;;;;;484171;245;28826;-65
2021/06/11 05:50:49;;;;;;;6.23;5.73;;;16.30;99.90;;;;;;484152;245;28780;-66
2021/06/11 05:52:50;;;;;;;6.30;5.80;;;16.40;99.90;;;;;;484109;245;28796;-65
2021/06/11 05:54:51;;;;;;;6.20;5.57;;;16.40;99.90;;;;;;484145;245;29001;-65
2021/06/11 05:56:53;;;;;;;6.07;5.57;;;16.50;99.90;;;;;;484205;245;28780;-67
2021/06/11 05:58:54;;;;;;;6.73;6.13;;;16.60;99.90;;;;;;484179;245;28769;-65
2021/06/11 06:00:55;;;;;;;6.83;6.33;;;16.70;99.90;;;;;;484134;245;28793;-65
2021/06/11 06:02:56;;;;;;;6.57;6.07;;;16.80;99.90;;;;;;484107;245;28837;-65
2021/06/11 06:04:58;;;;;;;6.70;6.10;;;16.80;99.90;;;;;;483980;245;28761;-66
2021/06/11 06:06:59;;;;;;;6.00;5.57;;;16.90;99.90;;;;;;483963;245;29728;-66
2021/06/11 06:09:00;;;;;;;6.30;5.70;;;17.00;99.90;;;;;;483910;245;29274;-65
2021/06/11 06:11:01;;;;;;;6.70;5.67;;;17.10;99.90;;;;;;484005;245;29358;-65
2021/06/11 06:13:03;;;;;;;5.53;5.13;;;17.20;99.90;;;;;;484138;245;29308;-66
2021/06/11 06:15:04;;;;;;;6.40;5.80;;;17.30;99.90;;;;;;484179;245;28739;-66
2021/06/11 06:17:05;;;;;;;8.13;5.97;;;17.40;99.90;;;;;;484187;245;28795;-67
2021/06/11 06:19:06;;;;;;;6.60;6.00;;;17.50;99.90;;;;;;484184;245;28740;-65
2021/06/11 06:21:08;;;;;;;6.20;5.63;;;17.50;99.90;;;;;;484172;245;28796;-65
2021/06/11 06:23:09;;;;;;;6.70;6.20;;;17.60;99.90;;;;;;484138;245;28787;-65
2021/06/11 06:25:10;;;;;;;6.67;6.13;;;17.60;99.90;;;;;;484150;245;28880;-65
2021/06/11 06:27:11;;;;;;;6.53;6.03;;;17.70;99.90;;;;;;484176;245;28793;-66
2021/06/11 06:29:13;;;;;;;5.27;4.87;;;17.80;99.90;;;;;;484195;245;28757;-65
2021/06/11 06:31:14;;;;;;;5.80;5.37;;;17.90;99.90;;;;;;484146;245;29518;-65
2021/06/11 06:33:15;;;;;;;9.17;6.03;;;18.00;99.90;;;;;;484144;245;30018;-65
2021/06/11 06:35:17;;;;;;;5.20;4.80;;;18.10;99.90;;;;;;484202;245;29221;-65
2021/06/11 06:37:18;;;;;;;7.43;4.93;;;18.20;99.90;;;;;;484168;245;28791;-67
2021/06/11 06:39:19;;;;;;;5.50;5.00;;;18.40;99.90;;;;;;484159;245;28742;-66
2021/06/11 06:41:20;;;;;;;4.90;4.50;;;18.40;99.90;;;;;;484202;245;28890;-66
2021/06/11 06:43:21;;;;;;;5.20;4.57;;;18.50;99.90;;;;;;484172;245;28744;-66
2021/06/11 06:45:23;;;;;;;4.63;4.33;;;18.60;99.90;;;;;;484149;245;28854;-65
2021/06/11 06:47:24;;;;;;;4.23;3.90;;;18.80;99.90;;;;;;484156;245;28787;-67
2021/06/11 06:49:25;;;;;;;4.30;3.90;;;18.90;99.90;;;;;;484189;245;28851;-66
2021/06/11 06:51:27;;;;;;;4.17;3.87;;;19.00;99.90;;;;;;484160;245;28778;-65
2021/06/11 06:53:28;;;;;;;4.53;4.13;;;19.10;99.90;;;;;;484160;245;28835;-65
2021/06/11 06:55:29;;;;;;;6.40;3.93;;;19.20;99.90;;;;;;484166;245;29249;-65
2021/06/11 06:57:30;;;;;;;4.13;3.60;;;19.30;99.90;;;;;;484188;245;29326;-68
2021/06/11 06:59:32;;;;;;;6.43;4.10;;;19.40;99.90;;;;;;484134;245;29222;-66
2021/06/11 07:01:33;;;;;;;4.57;4.17;;;19.50;99.90;;;;;;484177;245;28854;-66
2021/06/11 07:03:34;;;;;;;8.07;3.63;;;19.70;99.90;;;;;;484158;245;28728;-66
2021/06/11 07:05:35;;;;;;;3.27;3.07;;;19.70;99.90;;;;;;484120;245;28776;-66
2021/06/11 07:07:37;;;;;;;3.63;3.40;;;19.90;99.90;;;;;;484179;245;28889;-68
2021/06/11 07:09:38;;;;;;;3.43;3.20;;;19.90;99.90;;;;;;484189;245;28780;-66
2021/06/11 07:11:39;;;;;;;3.93;3.63;;;19.90;99.90;;;;;;484152;245;28862;-66
2021/06/11 07:13:40;;;;;;;6.07;3.10;;;19.80;99.90;;;;;;484121;245;29269;-66
2021/06/11 07:15:42;;;;;;;5.27;3.30;;;20.00;99.90;;;;;;484152;245;29293;-66
2021/06/11 07:17:43;;;;;;;4.33;3.77;;;20.00;99.90;;;;;;484174;245;29298;-67
2021/06/11 07:19:44;;;;;;;3.47;3.17;;;20.30;99.90;;;;;;484181;245;28744;-65
2021/06/11 07:21:45;;;;;;;4.93;4.53;;;20.40;99.90;;;;;;484157;245;28860;-66
2021/06/11 07:23:47;;;;;;;4.63;4.23;;;20.50;99.90;;;;;;484135;245;28870;-65
2021/06/11 07:25:48;;;;;;;3.60;3.30;;;20.60;99.90;;;;;;484167;245;28783;-67
2021/06/11 07:27:49;;;;;;;3.80;3.50;;;20.50;99.90;;;;;;484221;245;28859;-67
2021/06/11 07:29:50;;;;;;;5.33;4.00;;;20.50;99.90;;;;;;484132;245;28918;-66
2021/06/11 07:31:52;;;;;;;10.43;4.60;;;20.70;99.90;;;;;;484165;245;28881;-65
2021/06/11 07:33:53;;;;;;;4.03;3.70;;;20.80;99.90;;;;;;484145;245;28812;-66
2021/06/11 07:35:56;;;;;;;6.47;4.40;;;20.80;99.90;;;;;;484156;245;28795;-65
2021/06/11 07:37:55;;;;;;;4.63;4.23;;;20.80;99.90;;;;;;483996;245;29291;-67
2021/06/11 07:39:57;;;;;;;4.40;4.00;;;20.80;99.90;;;;;;484162;245;29204;-66
2021/06/11 07:41:58;;;;;;;4.80;4.27;;;20.90;99.90;;;;;;484180;245;29289;-65
2021/06/11 07:43:59;;;;;;;6.43;5.00;;;20.90;99.90;;;;;;484162;245;28843;-66
2021/06/11 07:46:00;;;;;;;4.93;4.43;;;21.30;99.90;;;;;;471632;235;29051;-65
2021/06/11 07:48:02;;;;;;;5.10;4.60;;;21.30;99.90;;;;;;462054;257;28787;-68
2021/06/11 07:50:03;;;;;;;4.10;3.80;;;21.30;99.90;;;;;;468550;254;29028;-66
2021/06/11 07:52:04;;;;;;;5.07;4.67;;;21.20;99.90;;;;;;468567;254;28966;-65
2021/06/11 07:54:07;;;;;;;4.57;4.10;;;21.20;99.90;;;;;;468541;254;30183;-65
2021/06/11 07:56:07;;;;;;;6.40;4.17;;;21.30;99.90;;;;;;468524;254;29503;-66
2021/06/11 07:58:08;;;;;;;5.30;3.97;;;21.40;99.90;;;;;;468574;254;29343;-67
2021/06/11 08:00:09;;;;;;;4.00;3.70;;;21.40;99.90;;;;;;468563;254;28868;-65
2021/06/11 08:02:12;;;;;;;4.20;3.80;;;21.30;99.90;;;;;;468581;254;28952;-67
2021/06/11 08:04:12;;;;;;;4.93;3.60;;;21.20;99.90;;;;;;468431;254;28910;-66
2021/06/11 08:06:13;;;;;;;6.10;3.70;;;21.30;99.90;;;;;;468571;254;28976;-65
2021/06/11 08:08:14;;;;;;;4.13;3.83;;;21.30;99.90;;;;;;468580;254;28957;-67
2021/06/11 08:10:16;;;;;;;3.73;3.43;;;21.40;99.90;;;;;;468557;254;29045;-65
2021/06/11 08:12:17;;;;;;;4.07;3.63;;;21.40;99.90;;;;;;468554;254;29005;-66
2021/06/11 08:14:18;;;;;;;6.70;3.90;;;21.40;99.90;;;;;;468533;254;28945;-65
2021/06/11 08:16:19;;;;;;;4.23;3.63;;;21.30;99.90;;;;;;468548;249;28969;-66
2021/06/11 08:18:21;;;;;;;4.20;3.70;;;21.50;99.90;;;;;;468589;254;29305;-68
2021/06/11 08:20:22;;;;;;;3.63;3.30;;;21.40;99.90;;;;;;468534;254;29377;-65
2021/06/11 08:22:23;;;;;;;4.00;3.60;;;21.30;99.90;;;;;;468552;254;29347;-67
2021/06/11 08:24:24;;;;;;;4.23;3.10;;;21.30;99.90;;;;;;468523;254;28838;-66
2021/06/11 08:26:26;;;;;;;4.00;3.60;;;21.40;99.90;;;;;;468569;254;29037;-65
2021/06/11 08:28:27;;;;;;;5.37;3.50;;;21.50;99.90;;;;;;468526;254;28954;-65
2021/06/11 08:30:29;;;;;;;5.93;4.20;;;21.70;99.90;;;;;;468563;254;28934;-65
2021/06/11 08:32:30;;;;;;;5.47;3.73;;;21.60;99.90;;;;;;468497;254;28896;-66
2021/06/11 08:34:35;;;;;;;5.20;3.80;;;21.70;99.90;;;;;;468545;254;29051;-67
2021/06/11 08:36:32;;;;;;;6.50;3.73;;;21.90;99.90;;;;;;468191;254;29069;-65
2021/06/11 08:38:33;;;;;;;4.23;3.93;;;22.10;99.90;;;;;;468537;254;29412;-68
2021/06/11 08:40:34;;;;;;;5.43;3.70;;;22.20;99.90;;;;;;468585;254;28932;-65
2021/06/11 08:42:36;;;;;;;6.40;4.07;;;22.10;99.90;;;;;;468587;254;29508;-66
2021/06/11 08:44:37;;;;;;;4.50;4.10;;;22.00;99.90;;;;;;468541;254;29291;-66
2021/06/11 08:46:38;;;;;;;4.10;3.80;;;22.20;99.90;;;;;;468581;254;29420;-65
2021/06/11 08:48:39;;;;;;;3.90;3.60;;;22.30;99.90;;;;;;468555;254;29701;-68
2021/06/11 08:50:43;;;;;;;4.23;3.93;;;22.20;99.90;;;;;;468588;254;29013;-66
2021/06/11 08:52:45;;;;;;;4.53;3.70;;;22.20;99.90;;;;;;468570;254;28833;-65
2021/06/11 08:54:47;;;;;;;3.70;3.40;;;22.30;99.90;;;;;;468608;254;28873;-67
2021/06/11 08:56:49;;;;;;;3.40;2.93;;;22.20;99.90;;;;;;468542;254;28929;-66
2021/06/11 08:58:49;;;;;;;4.00;3.57;;;22.10;99.90;;;;;;468475;254;29080;-66
2021/06/11 09:00:50;;;;;;;4.50;3.80;;;22.00;99.90;;;;;;468542;254;28865;-65
2021/06/11 09:02:51;;;;;;;4.13;3.73;;;22.10;99.90;;;;;;468591;254;28900;-66
2021/06/11 09:04:54;;;;;;;7.20;4.23;;;22.20;99.90;;;;;;468621;254;29436;-67
2021/06/11 09:06:53;;;;;;;3.97;3.67;;;22.20;99.90;;;;;;468478;254;29444;-66
2021/06/11 09:08:55;;;;;;;4.40;3.53;;;22.20;99.90;;;;;;468600;254;29456;-66
2021/06/11 09:10:56;;;;;;;3.73;3.43;;;22.30;99.90;;;;;;468582;254;29965;-68
2021/06/11 09:12:57;;;;;;;5.03;4.63;;;22.40;99.90;;;;;;468623;254;28917;-66
2021/06/11 09:14:58;;;;;;;10.03;4.60;;;22.60;99.90;;;;;;468568;254;29048;-66
2021/06/11 09:17:00;;;;;;;6.10;4.83;;;22.60;99.90;;;;;;468598;254;28968;-66
2021/06/11 09:19:02;;;;;;;7.07;4.80;;;22.70;99.90;;;;;;468570;254;28991;-67
2021/06/11 09:21:02;;;;;;;6.33;5.00;;;22.60;99.90;;;;;;468553;254;28878;-66
2021/06/11 09:23:03;;;;;;;5.03;4.63;;;22.90;99.90;;;;;;468584;254;28853;-66
2021/06/11 09:25:05;;;;;;;5.33;4.67;;;22.90;99.90;;;;;;468613;254;29049;-66
2021/06/11 09:27:07;;;;;;;4.50;3.93;;;22.90;99.90;;;;;;468579;254;29030;-66
2021/06/11 09:29:07;;;;;;;5.37;4.30;;;22.80;99.90;;;;;;468549;254;29515;-65
2021/06/11 09:31:08;;;;;;;9.20;4.70;;;22.90;99.90;;;;;;468574;254;29439;-66
2021/06/11 09:33:10;;;;;;;8.10;4.57;;;23.10;99.90;;;;;;468599;254;29468;-66
2021/06/11 09:35:11;;;;;;;5.00;4.50;;;23.30;99.90;;;;;;468598;254;28903;-67
2021/06/11 09:37:12;;;;;;;4.30;3.90;;;23.20;99.90;;;;;;468613;254;28928;-66
2021/06/11 09:39:13;;;;;;;4.83;4.50;;;23.20;99.90;;;;;;468589;254;28948;-66
2021/06/11 09:41:15;;;;;;;3.63;3.43;;;23.00;99.90;;;;;;468542;254;29033;-66
2021/06/11 09:43:16;;;;;;;7.67;4.60;;;23.10;99.90;;;;;;468590;254;28845;-66
2021/06/11 09:45:17;;;;;;;4.10;3.70;;;23.00;99.90;;;;;;468595;254;28938;-67
2021/06/11 09:47:18;;;;;;;3.50;3.30;;;23.00;99.90;;;;;;468567;254;28937;-65
2021/06/11 09:49:20;;;;;;;4.30;3.90;;;23.00;99.90;;;;;;468603;254;28965;-66
2021/06/11 09:51:22;;;;;;;4.03;3.70;;;23.10;99.90;;;;;;468554;254;29227;-65
2021/06/11 09:53:23;;;;;;;7.83;3.80;;;23.20;99.90;;;;;;468516;254;29375;-66
2021/06/11 09:55:24;;;;;;;5.40;3.77;;;23.40;99.90;;;;;;468585;254;29449;-66
2021/06/11 09:57:25;;;;;;;7.63;3.53;;;23.20;99.90;;;;;;468604;254;29458;-66
2021/06/11 09:59:26;;;;;;;3.77;3.47;;;23.30;99.90;;;;;;468612;254;28858;-66
2021/06/11 10:01:28;;;;;;;5.23;3.80;;;23.30;99.90;;;;;;468592;254;28845;-66
2021/06/11 10:03:29;;;;;;;4.40;3.37;;;23.40;99.90;;;;;;468546;254;28909;-66
2021/06/11 10:05:30;;;;;;;3.20;2.90;;;23.30;99.90;;;;;;468526;254;28889;-67
2021/06/11 10:07:31;;;;;;;3.43;3.13;;;23.40;99.90;;;;;;468605;254;28921;-66
2021/06/11 10:09:32;;;;;;;3.70;3.40;;;23.40;99.90;;;;;;468588;254;28969;-67
2021/06/11 10:11:33;;;;;;;5.90;3.60;;;23.60;99.90;;;;;;468586;254;29021;-67
2021/06/11 10:13:35;;;;;;;4.63;3.40;;;23.60;99.90;;;;;;468599;254;28913;-66
2021/06/11 10:15:36;;;;;;;9.83;3.50;;;23.60;99.90;;;;;;468603;254;29102;-67
2021/06/11 10:17:37;;;;;;;5.40;4.20;;;23.60;99.90;;;;;;468529;254;29410;-66
2021/06/11 10:19:38;;;;;;;4.40;4.00;;;23.80;99.90;;;;;;468576;254;29464;-66
2021/06/11 10:21:41;;;;;;;4.13;3.43;;;24.00;99.90;;;;;;468575;254;29594;-66
2021/06/11 10:23:41;;;;;;;4.70;3.93;;;24.00;99.90;;;;;;468472;254;28947;-65
2021/06/11 10:25:44;;;;;;;13.83;9.43;;;24.10;99.90;;;;;;468582;254;28865;-68
2021/06/11 10:27:43;;;;;;;5.03;4.60;;;24.20;99.90;;;;;;468456;254;29042;-66
2021/06/11 10:29:45;;;;;;;6.03;4.37;;;24.30;99.90;;;;;;468583;254;28949;-67